Airfield :
LOGIN :

Register | Disclaimer

   EN    FR    IT 

 










Legend :    VFR   Marginal VFR   IFR   Intensive IFR   Very Intensive IFR
Visi :
Ceiling :
>= 8 km
>= 3000ft
5 to 8 km
1000 to 3000 ft
1500m to 5 km
500 to 1000 ft
800 to 1500m
200 to 500 ft
< 800m
< 200 ft
Symbols :   Thunderstorms  Fog  Heavy snow  Heavy precipitations  Wind > 20 kt
SIGMETs :     Misc.  Thunderstorms  Icing  Turbulence  Mountain Waves  Volcanic Ashes







- Airport Elevation : 156 ft
- IATA code : LCC


LIBN - Lecce Galatine (military)

CURRENT METAR :
  • 181455Z 21008KT 9999 FEW030 12/08 Q1015 RMK BKN BKN200 VIS MIN 9999 WIND THR14 20008KT WIND THR32 21007KT BLU

EXPIRED METARs :
  • 181355Z 21010KT 9999 FEW030 13/08 Q1015 RMK BKN BKN200 VIS MIN 9999 WIND THR14 20010KT WIND THR32 21009KT BLU
  • 181255Z 19012KT 9999 FEW025 15/10 Q1014 RMK BKN SCT200 VIS MIN 9999 WIND THR14 20012KT WIND THR32 19012KT BLU

TAF TAF LIBN
Valid from the 18 at 12:00 until the 18 at 21:00 UTC


181100Z 1812/1821 18012KT 9999 SCT040
No reported NOTAMs for that airfield.



MET'MAP, your aeronautical weather chart ! - Copyright ORBIFLY December 2007 - Disclaimer

ORBIFLY MET'MAP TEAM :

Programming & Development : Alexandra Zaïnal
Concept & Development : Baudouin d'Aumeries
Co-Development & Prog : Marc-Olivier Méhu
Technical & hardware support : Manuel Goepfert

Contact : metmap@orbifly.com




SOURCES & CREDITS :

   NOAA